SILO ALERT LOG


Silo ID Alert Type Alert Message Silo Type Points Depth (mm) Strength Temperature (°C) Humidity (%) Height (mm) Volume (㎥) Weight (t) Flag Time
DJSAD18 Humidity 습도센서 측정값이 80% 초과 122 1425 5796 4.8 80.8 6154 612.851 387.445 11 2024-01-14 02:39:31.000
DJSAD17 Humidity 습도센서 측정값이 80% 초과 452 3130 4770 4 81.7 4449 443.033 280.086 0 2024-01-14 02:39:31.000
DJHNR13 Temperature 온도센서 측정값이 0도 미만 호퍼 11 2191 3065 -2.8 70.9 8188 122.672 77.553 0 2024-01-14 02:39:31.000
DJSSD11 Temperature 온도센서 측정값이 0도 미만 호퍼 446 7391 154 -4.3 67.8 3838 28.855 15.726 0 2024-01-14 02:39:31.000
DJSSD09 Temperature 온도센서 측정값이 0도 미만 123 2998 3612 -45.4 0 4681 651.545 411.907 11 2024-01-14 02:39:31.000
DJDJD04 Humidity 습도센서 측정값이 80% 초과 279 4207 4475 3.1 82 3472 420.728 265.984 11 2024-01-14 02:39:31.000
DJSAD16 Humidity 습도센서 측정값이 80% 초과 90 6512 3432 4.6 80.2 1067 106.346 67.232 11 2024-01-14 02:39:31.000
DJSAD08 Humidity 습도센서 측정값이 80% 초과 543 2328 4884 7.4 83.8 5251 747.191 472.374 12 2024-01-14 02:39:31.000
DJHNR14 Temperature 온도센서 측정값이 0도 미만 호퍼 38 3032 4526 -3.4 74.1 7347 104.528 66.083 11 2024-01-14 02:39:30.000
DJHNR03 Temperature 온도센서 상태 이상 호퍼 0 15500 0 -999 -999 -119 0 0 31 2024-01-14 02:39:24.000
DJSSD12 Temperature 온도센서 상태 이상 호퍼 0 11350 0 -999 -999 -120 0 0 31 2024-01-14 02:39:24.000
DJHNR12 Temperature 온도센서 측정값이 0도 미만 호퍼 0 10500 0 -2 77.3 -120 0 0 31 2024-01-14 02:39:23.000
DJSAD03 Humidity 습도센서 측정값이 80% 초과 443 1697 6238 2.9 84.5 7082 293.208 185.366 0 2024-01-14 01:39:39.000
DJDJD03 Humidity 습도센서 측정값이 80% 초과 64 4490 5154 2.3 82.5 3189 386.39 244.276 0 2024-01-14 01:39:39.000
DJSAD01 Humidity 습도센서 측정값이 80% 초과 453 1487 7454 1.3 85.4 7292 301.893 190.857 0 2024-01-14 01:39:39.000
DJSAD02 Humidity 습도센서 측정값이 80% 초과 388 1135 4278 2.1 86.1 7644 316.47 200.072 11 2024-01-14 01:39:38.000
DJSAD11 Humidity 습도센서 측정값이 80% 초과 340 1648 3309 1.7 80.2 5931 844.071 533.622 11 2024-01-14 01:39:35.000
DJHNR11 Temperature 온도센서 측정값이 0도 미만 호퍼 122 1911 3335 -2.4 75.1 8468 128.714 81.373 11 2024-01-14 01:39:33.000
DJSSD05 Temperature 온도센서 측정값이 0도 미만 846 2535 4882 -45.4 43.7 5544 771.666 487.847 0 2024-01-14 01:39:33.000
DJHNR01 Humidity 습도센서 측정값이 80% 초과 호퍼 471 4315 4908 4.6 99.9 11064 472.262 298.564 13 2024-01-14 01:39:33.000

[첫 페이지] [9954] [9955] [9956] [9957] 9958 [9959] [9960] [9961] [9962] [마지막 페이지]